sensor_id;sensor_type;location;lat;lon;timestamp;pressure;altitude;pressure_sealevel;temperature;humidity
53262;BME280;39658;51.090;-1.786;2024-01-07T00:00:30;101945.59;;;1.32;100.00
53262;BME280;39658;51.090;-1.786;2024-01-07T00:02:57;101952.56;;;1.31;100.00
53262;BME280;39658;51.090;-1.786;2024-01-07T00:05:25;101959.50;;;1.31;100.00
53262;BME280;39658;51.090;-1.786;2024-01-07T00:07:53;101965.56;;;1.28;100.00
53262;BME280;39658;51.090;-1.786;2024-01-07T00:10:20;101968.16;;;1.27;100.00
53262;BME280;39658;51.090;-1.786;2024-01-07T00:12:46;101980.25;;;1.34;100.00
53262;BME280;39658;51.090;-1.786;2024-01-07T00:15:13;101992.31;;;1.41;100.00
53262;BME280;39658;51.090;-1.786;2024-01-07T00:17:40;101993.19;;;1.43;100.00
53262;BME280;39658;51.090;-1.786;2024-01-07T00:20:08;102008.75;;;1.46;100.00
53262;BME280;39658;51.090;-1.786;2024-01-07T00:22:37;102004.41;;;1.45;100.00
53262;BME280;39658;51.090;-1.786;2024-01-07T00:25:04;102008.69;;;1.51;100.00
53262;BME280;39658;51.090;-1.786;2024-01-07T00:27:31;102015.59;;;1.55;100.00
53262;BME280;39658;51.090;-1.786;2024-01-07T00:29:58;102030.25;;;1.65;100.00
53262;BME280;39658;51.090;-1.786;2024-01-07T00:32:25;102033.66;;;1.75;100.00
53262;BME280;39658;51.090;-1.786;2024-01-07T00:34:52;102044.84;;;1.83;100.00
53262;BME280;39658;51.090;-1.786;2024-01-07T00:37:19;102052.59;;;1.88;100.00
53262;BME280;39658;51.090;-1.786;2024-01-07T00:39:47;102049.06;;;1.96;100.00
53262;BME280;39658;51.090;-1.786;2024-01-07T00:42:14;102049.91;;;1.98;100.00
53262;BME280;39658;51.090;-1.786;2024-01-07T00:44:41;102046.47;;;1.96;100.00
53262;BME280;39658;51.090;-1.786;2024-01-07T00:47:08;102030.06;;;1.90;100.00
53262;BME280;39658;51.090;-1.786;2024-01-07T00:49:35;102022.41;;;1.74;100.00
53262;BME280;39658;51.090;-1.786;2024-01-07T00:52:01;102021.59;;;1.65;100.00
53262;BME280;39658;51.090;-1.786;2024-01-07T00:54:28;102013.03;;;1.50;100.00
53262;BME280;39658;51.090;-1.786;2024-01-07T00:56:56;102002.69;;;1.44;100.00
53262;BME280;39658;51.090;-1.786;2024-01-07T00:59:23;101993.22;;;1.38;100.00
53262;BME280;39658;51.090;-1.786;2024-01-07T01:01:50;102001.88;;;1.39;100.00
53262;BME280;39658;51.090;-1.786;2024-01-07T01:04:17;101997.50;;;1.44;100.00
53262;BME280;39658;51.090;-1.786;2024-01-07T01:06:45;101998.38;;;1.43;100.00
53262;BME280;39658;51.090;-1.786;2024-01-07T01:09:12;102008.75;;;1.46;100.00
53262;BME280;39658;51.090;-1.786;2024-01-07T01:11:39;102003.53;;;1.49;100.00
53262;BME280;39658;51.090;-1.786;2024-01-07T01:14:07;102012.13;;;1.59;100.00
53262;BME280;39658;51.090;-1.786;2024-01-07T01:16:34;102016.34;;;1.68;100.00
53262;BME280;39658;51.090;-1.786;2024-01-07T01:19:01;102011.06;;;1.78;100.00
53262;BME280;39658;51.090;-1.786;2024-01-07T01:21:28;102022.34;;;1.82;100.00
53262;BME280;39658;51.090;-1.786;2024-01-07T01:23:55;102024.84;;;1.91;100.00
53262;BME280;39658;51.090;-1.786;2024-01-07T01:26:22;102019.56;;;1.99;100.00
53262;BME280;39658;51.090;-1.786;2024-01-07T01:28:48;102018.63;;;2.05;100.00
53262;BME280;39658;51.090;-1.786;2024-01-07T01:31:17;102023.75;;;2.12;100.00
53262;BME280;39658;51.090;-1.786;2024-01-07T01:33:44;102019.44;;;2.14;100.00
53262;BME280;39658;51.090;-1.786;2024-01-07T01:36:10;102017.75;;;2.09;100.00
53262;BME280;39658;51.090;-1.786;2024-01-07T01:38:37;102010.78;;;2.09;100.00
53262;BME280;39658;51.090;-1.786;2024-01-07T01:41:04;101998.72;;;2.04;100.00
53262;BME280;39658;51.090;-1.786;2024-01-07T01:43:31;101991.88;;;1.93;100.00
53262;BME280;39658;51.090;-1.786;2024-01-07T01:45:58;102001.50;;;1.85;100.00
53262;BME280;39658;51.090;-1.786;2024-01-07T01:48:26;101994.69;;;1.70;100.00
53262;BME280;39658;51.090;-1.786;2024-01-07T01:50:55;101993.91;;;1.59;100.00
53262;BME280;39658;51.090;-1.786;2024-01-07T01:53:23;101993.06;;;1.54;100.00
53262;BME280;39658;51.090;-1.786;2024-01-07T01:55:50;102005.25;;;1.47;100.00
53262;BME280;39658;51.090;-1.786;2024-01-07T01:58:19;102012.22;;;1.45;100.00
53262;BME280;39658;51.090;-1.786;2024-01-07T02:00:46;102015.69;;;1.44;100.00
53262;BME280;39658;51.090;-1.786;2024-01-07T02:03:13;102017.38;;;1.51;100.00
53262;BME280;39658;51.090;-1.786;2024-01-07T02:05:42;102020.84;;;1.49;100.00
53262;BME280;39658;51.090;-1.786;2024-01-07T02:08:09;102029.47;;;1.51;100.00
53262;BME280;39658;51.090;-1.786;2024-01-07T02:10:37;102038.16;;;1.54;100.00
53262;BME280;39658;51.090;-1.786;2024-01-07T02:13:04;102039.00;;;1.55;100.00
53262;BME280;39658;51.090;-1.786;2024-01-07T02:15:31;102050.19;;;1.61;100.00
53262;BME280;39658;51.090;-1.786;2024-01-07T02:17:59;102047.59;;;1.65;100.00
53262;BME280;39658;51.090;-1.786;2024-01-07T02:20:26;102052.84;;;1.54;100.00
53262;BME280;39658;51.090;-1.786;2024-01-07T02:22:54;102066.78;;;1.48;100.00
53262;BME280;39658;51.090;-1.786;2024-01-07T02:25:24;102070.25;;;1.44;100.00
53262;BME280;39658;51.090;-1.786;2024-01-07T02:27:51;102074.59;;;1.45;100.00
53262;BME280;39658;51.090;-1.786;2024-01-07T02:30:18;102085.88;;;1.39;100.00
53262;BME280;39658;51.090;-1.786;2024-01-07T02:32:45;102085.09;;;1.28;100.00
53262;BME280;39658;51.090;-1.786;2024-01-07T02:35:12;102092.91;;;1.22;100.00
53262;BME280;39658;51.090;-1.786;2024-01-07T02:37:38;102109.38;;;1.15;100.00
53262;BME280;39658;51.090;-1.786;2024-01-07T02:40:06;102109.41;;;1.10;100.00
53262;BME280;39658;51.090;-1.786;2024-01-07T02:42:35;102118.94;;;1.14;100.00
53262;BME280;39658;51.090;-1.786;2024-01-07T02:45:02;102124.16;;;1.08;100.00
53262;BME280;39658;51.090;-1.786;2024-01-07T02:47:29;102144.88;;;1.19;100.00
53262;BME280;39658;51.090;-1.786;2024-01-07T02:49:56;102157.84;;;1.23;100.00
53262;BME280;39658;51.090;-1.786;2024-01-07T02:52:23;102153.50;;;1.30;100.00
53262;BME280;39658;51.090;-1.786;2024-01-07T02:54:50;102159.56;;;1.31;100.00
53262;BME280;39658;51.090;-1.786;2024-01-07T02:57:16;102165.66;;;1.25;100.00
53262;BME280;39658;51.090;-1.786;2024-01-07T02:59:45;102170.84;;;1.22;100.00
53262;BME280;39658;51.090;-1.786;2024-01-07T03:02:12;102176.03;;;1.25;100.00
53262;BME280;39658;51.090;-1.786;2024-01-07T03:04:38;102181.28;;;1.16;100.00
53262;BME280;39658;51.090;-1.786;2024-01-07T03:07:05;102183.03;;;1.11;100.00
53262;BME280;39658;51.090;-1.786;2024-01-07T03:09:32;102192.53;;;1.04;100.00
53262;BME280;39658;51.090;-1.786;2024-01-07T03:11:59;102193.47;;;0.94;100.00
53262;BME280;39658;51.090;-1.786;2024-01-07T03:14:26;102202.09;;;0.96;100.00
53262;BME280;39658;51.090;-1.786;2024-01-07T03:16:54;102203.84;;;0.86;100.00
53262;BME280;39658;51.090;-1.786;2024-01-07T03:19:21;102209.06;;;0.87;100.00
53262;BME280;39658;51.090;-1.786;2024-01-07T03:21:48;102203.88;;;0.83;100.00
53262;BME280;39658;51.090;-1.786;2024-01-07T03:24:15;102223.75;;;0.82;100.00
53262;BME280;39658;51.090;-1.786;2024-01-07T03:26:42;102231.53;;;0.84;100.00
53262;BME280;39658;51.090;-1.786;2024-01-07T03:29:08;102240.22;;;0.81;100.00
53262;BME280;39658;51.090;-1.786;2024-01-07T03:31:35;102240.22;;;0.74;100.00
53262;BME280;39658;51.090;-1.786;2024-01-07T03:34:04;102246.28;;;0.68;100.00
53262;BME280;39658;51.090;-1.786;2024-01-07T03:36:31;102249.75;;;0.62;100.00
53262;BME280;39658;51.090;-1.786;2024-01-07T03:38:57;102251.47;;;0.59;100.00
53262;BME280;39658;51.090;-1.786;2024-01-07T03:41:24;102266.19;;;0.61;100.00
53262;BME280;39658;51.090;-1.786;2024-01-07T03:43:51;102272.22;;;0.56;100.00
53262;BME280;39658;51.090;-1.786;2024-01-07T03:46:18;102272.22;;;0.52;100.00
53262;BME280;39658;51.090;-1.786;2024-01-07T03:48:46;102271.38;;;0.47;100.00
53262;BME280;39658;51.090;-1.786;2024-01-07T03:51:14;102278.28;;;0.48;100.00
53262;BME280;39658;51.090;-1.786;2024-01-07T03:53:41;102292.13;;;0.44;100.00
53262;BME280;39658;51.090;-1.786;2024-01-07T03:56:08;102294.72;;;0.44;100.00
53262;BME280;39658;51.090;-1.786;2024-01-07T03:58:35;102299.88;;;0.37;100.00
53262;BME280;39658;51.090;-1.786;2024-01-07T04:01:02;102304.22;;;0.30;100.00
53262;BME280;39658;51.090;-1.786;2024-01-07T04:03:29;102310.25;;;0.24;100.00
53262;BME280;39658;51.090;-1.786;2024-01-07T04:05:56;102307.63;;;0.12;100.00
53262;BME280;39658;51.090;-1.786;2024-01-07T04:08:24;102305.84;;;0.05;100.00
53262;BME280;39658;51.090;-1.786;2024-01-07T04:10:51;102314.50;;;0.04;100.00
53262;BME280;39658;51.090;-1.786;2024-01-07T04:13:17;102311.03;;;0.08;100.00
53262;BME280;39658;51.090;-1.786;2024-01-07T04:15:44;102316.22;;;0.06;100.00
53262;BME280;39658;51.090;-1.786;2024-01-07T04:18:11;102318.84;;;0.09;100.00
53262;BME280;39658;51.090;-1.786;2024-01-07T04:20:38;102324.91;;;0.10;100.00
53262;BME280;39658;51.090;-1.786;2024-01-07T04:23:05;102340.47;;;0.08;100.00
53262;BME280;39658;51.090;-1.786;2024-01-07T04:25:33;102353.44;;;0.07;100.00
53262;BME280;39658;51.090;-1.786;2024-01-07T04:28:00;102350.81;;;0.04;100.00
53262;BME280;39658;51.090;-1.786;2024-01-07T04:30:27;102356.03;;;0.08;100.00
53262;BME280;39658;51.090;-1.786;2024-01-07T04:32:53;102360.31;;;0.06;100.00
53262;BME280;39658;51.090;-1.786;2024-01-07T04:35:20;102363.78;;;0.02;100.00
53262;BME280;39658;51.090;-1.786;2024-01-07T04:37:47;102374.13;;;-0.01;100.00
53262;BME280;39658;51.090;-1.786;2024-01-07T04:40:14;102381.03;;;0.03;100.00
53262;BME280;39658;51.090;-1.786;2024-01-07T04:42:42;102390.63;;;0.16;100.00
53262;BME280;39658;51.090;-1.786;2024-01-07T04:45:09;102382.06;;;0.33;100.00
53262;BME280;39658;51.090;-1.786;2024-01-07T04:47:36;102400.25;;;0.45;100.00
53262;BME280;39658;51.090;-1.786;2024-01-07T04:50:04;102403.72;;;0.53;100.00
53262;BME280;39658;51.090;-1.786;2024-01-07T04:52:31;102415.88;;;0.64;100.00
53262;BME280;39658;51.090;-1.786;2024-01-07T04:54:57;102418.50;;;0.75;100.00
53262;BME280;39658;51.090;-1.786;2024-01-07T04:57:24;102436.69;;;0.92;100.00
53262;BME280;39658;51.090;-1.786;2024-01-07T04:59:52;102440.19;;;1.03;100.00
53262;BME280;39658;51.090;-1.786;2024-01-07T05:02:19;102448.84;;;1.06;100.00
53262;BME280;39658;51.090;-1.786;2024-01-07T05:04:46;102454.91;;;1.08;100.00
53262;BME280;39658;51.090;-1.786;2024-01-07T05:07:13;102449.69;;;1.01;100.00
53262;BME280;39658;51.090;-1.786;2024-01-07T05:09:40;102465.28;;;0.96;100.00
53262;BME280;39658;51.090;-1.786;2024-01-07T05:12:07;102467.00;;;0.94;100.00
53262;BME280;39658;51.090;-1.786;2024-01-07T05:14:34;102474.81;;;1.02;100.00
53262;BME280;39658;51.090;-1.786;2024-01-07T05:17:03;102486.09;;;1.15;100.00
53262;BME280;39658;51.090;-1.786;2024-01-07T05:19:30;102497.38;;;1.28;100.00
53262;BME280;39658;51.090;-1.786;2024-01-07T05:21:58;102522.50;;;1.39;100.00
53262;BME280;39658;51.090;-1.786;2024-01-07T05:24:24;102533.81;;;1.49;100.00
53262;BME280;39658;51.090;-1.786;2024-01-07T05:26:51;102545.06;;;1.59;100.00
53262;BME280;39658;51.090;-1.786;2024-01-07T05:29:18;102547.66;;;1.65;100.00
53262;BME280;39658;51.090;-1.786;2024-01-07T05:31:45;102551.13;;;1.70;100.00
53262;BME280;39658;51.090;-1.786;2024-01-07T05:34:14;102565.00;;;1.75;100.00
53262;BME280;39658;51.090;-1.786;2024-01-07T05:36:40;102562.38;;;1.77;100.00
53262;BME280;39658;51.090;-1.786;2024-01-07T05:39:07;102571.94;;;1.81;100.00
53262;BME280;39658;51.090;-1.786;2024-01-07T05:41:36;102565.88;;;1.84;100.00
53262;BME280;39658;51.090;-1.786;2024-01-07T05:44:03;102572.78;;;1.86;100.00
53262;BME280;39658;51.090;-1.786;2024-01-07T05:46:31;102571.09;;;1.85;100.00
53262;BME280;39658;51.090;-1.786;2024-01-07T05:48:58;102571.94;;;1.87;100.00
53262;BME280;39658;51.090;-1.786;2024-01-07T05:51:27;102569.34;;;1.87;100.00
53262;BME280;39658;51.090;-1.786;2024-01-07T05:53:53;102563.28;;;1.90;100.00
53262;BME280;39658;51.090;-1.786;2024-01-07T05:56:20;102545.94;;;1.92;100.00
53262;BME280;39658;51.090;-1.786;2024-01-07T05:58:47;102529.47;;;1.93;100.00
53262;BME280;39658;51.090;-1.786;2024-01-07T06:01:18;102501.72;;;1.93;100.00
53262;BME280;39658;51.090;-1.786;2024-01-07T06:03:45;102454.88;;;1.95;100.00
53262;BME280;39658;51.090;-1.786;2024-01-07T06:06:13;102396.78;;;1.94;100.00
53262;BME280;39658;51.090;-1.786;2024-01-07T06:08:41;102347.34;;;1.97;100.00
53262;BME280;39658;51.090;-1.786;2024-01-07T06:11:08;102289.25;;;1.95;100.00
53262;BME280;39658;51.090;-1.786;2024-01-07T06:13:36;102225.97;;;1.93;100.00
53262;BME280;39658;51.090;-1.786;2024-01-07T06:16:03;102169.59;;;1.94;100.00
53262;BME280;39658;51.090;-1.786;2024-01-07T06:18:30;102118.44;;;1.99;100.00
53262;BME280;39658;51.090;-1.786;2024-01-07T06:20:56;102023.91;;;1.98;100.00
53262;BME280;39658;51.090;-1.786;2024-01-07T06:23:23;101920.72;;;1.99;100.00
53262;BME280;39658;51.090;-1.786;2024-01-07T06:25:52;101879.09;;;2.01;100.00
53262;BME280;39658;51.090;-1.786;2024-01-07T06:28:18;101840.94;;;2.00;100.00
53262;BME280;39658;51.090;-1.786;2024-01-07T06:30:46;101806.34;;;1.94;100.00
53262;BME280;39658;51.090;-1.786;2024-01-07T06:33:13;101788.19;;;1.90;100.00
53262;BME280;39658;51.090;-1.786;2024-01-07T06:35:40;101773.47;;;1.87;100.00
53262;BME280;39658;51.090;-1.786;2024-01-07T06:38:07;101759.63;;;1.87;100.00
53262;BME280;39658;51.090;-1.786;2024-01-07T06:40:34;101749.22;;;1.87;100.00
53262;BME280;39658;51.090;-1.786;2024-01-07T06:43:02;101746.66;;;1.84;100.00
53262;BME280;39658;51.090;-1.786;2024-01-07T06:45:31;101757.06;;;1.84;100.00
53262;BME280;39658;51.090;-1.786;2024-01-07T06:47:58;101748.34;;;1.85;100.00
53262;BME280;39658;51.090;-1.786;2024-01-07T06:50:26;101739.72;;;1.84;100.00
53262;BME280;39658;51.090;-1.786;2024-01-07T06:52:53;101737.09;;;1.86;100.00
53262;BME280;39658;51.090;-1.786;2024-01-07T06:55:19;101767.41;;;1.88;100.00
53262;BME280;39658;51.090;-1.786;2024-01-07T06:57:46;101802.91;;;1.89;100.00
53262;BME280;39658;51.090;-1.786;2024-01-07T07:00:15;101816.81;;;1.88;100.00
53262;BME280;39658;51.090;-1.786;2024-01-07T07:02:43;101819.53;;;1.79;100.00
53262;BME280;39658;51.090;-1.786;2024-01-07T07:05:10;101842.84;;;1.87;100.00
53262;BME280;39658;51.090;-1.786;2024-01-07T07:07:37;101863.66;;;1.85;100.00
53262;BME280;39658;51.090;-1.786;2024-01-07T07:10:04;101865.34;;;1.88;100.00
53262;BME280;39658;51.090;-1.786;2024-01-07T07:12:31;101884.47;;;1.85;100.00
53262;BME280;39658;51.090;-1.786;2024-01-07T07:14:58;101906.16;;;1.83;100.00
53262;BME280;39658;51.090;-1.786;2024-01-07T07:17:26;101894.06;;;1.78;100.00
53262;BME280;39658;51.090;-1.786;2024-01-07T07:19:53;101897.50;;;1.82;100.00
53262;BME280;39658;51.090;-1.786;2024-01-07T07:22:20;101900.13;;;1.81;100.00
53262;BME280;39658;51.090;-1.786;2024-01-07T07:24:47;101908.75;;;1.83;100.00
53262;BME280;39658;51.090;-1.786;2024-01-07T07:27:16;101923.59;;;1.73;100.00
53262;BME280;39658;51.090;-1.786;2024-01-07T07:29:43;101940.19;;;1.58;100.00
53262;BME280;39658;51.090;-1.786;2024-01-07T07:32:10;101953.28;;;1.46;100.00
53262;BME280;39658;51.090;-1.786;2024-01-07T07:34:38;101964.63;;;1.38;100.00
53262;BME280;39658;51.090;-1.786;2024-01-07T07:37:05;101962.94;;;1.31;100.00
53262;BME280;39658;51.090;-1.786;2024-01-07T07:39:32;101982.97;;;1.15;100.00
53262;BME280;39658;51.090;-1.786;2024-01-07T07:41:59;101987.41;;;0.95;100.00
53262;BME280;39658;51.090;-1.786;2024-01-07T07:44:26;101999.63;;;0.76;100.00
53262;BME280;39658;51.090;-1.786;2024-01-07T07:46:53;102009.19;;;0.66;100.00
53262;BME280;39658;51.090;-1.786;2024-01-07T07:49:20;102016.19;;;0.51;100.00
53262;BME280;39658;51.090;-1.786;2024-01-07T07:51:48;102017.94;;;0.34;100.00
53262;BME280;39658;51.090;-1.786;2024-01-07T07:54:16;102019.69;;;0.29;100.00
53262;BME280;39658;51.090;-1.786;2024-01-07T07:56:43;102021.47;;;0.10;100.00
53262;BME280;39658;51.090;-1.786;2024-01-07T07:59:10;102022.34;;;0.01;100.00
53262;BME280;39658;51.090;-1.786;2024-01-07T08:01:36;102022.34;;;-0.11;100.00
53262;BME280;39658;51.090;-1.786;2024-01-07T08:04:05;102024.09;;;-0.23;100.00
53262;BME280;39658;51.090;-1.786;2024-01-07T08:06:33;102025.84;;;-0.32;100.00
53262;BME280;39658;51.090;-1.786;2024-01-07T08:09:01;102024.94;;;-0.36;100.00
53262;BME280;39658;51.090;-1.786;2024-01-07T08:11:28;102015.47;;;-0.42;100.00
53262;BME280;39658;51.090;-1.786;2024-01-07T08:13:55;102030.13;;;-0.34;100.00
53262;BME280;39658;51.090;-1.786;2024-01-07T08:16:23;102035.31;;;-0.30;100.00
53262;BME280;39658;51.090;-1.786;2024-01-07T08:18:49;102026.69;;;-0.23;100.00
53262;BME280;39658;51.090;-1.786;2024-01-07T08:21:16;102025.84;;;-0.25;100.00
53262;BME280;39658;51.090;-1.786;2024-01-07T08:23:43;102013.72;;;-0.15;100.00
53262;BME280;39658;51.090;-1.786;2024-01-07T08:26:11;102017.16;;;-0.11;100.00
53262;BME280;39658;51.090;-1.786;2024-01-07T08:28:38;102013.72;;;-0.10;100.00
53262;BME280;39658;51.090;-1.786;2024-01-07T08:31:05;102018.91;;;-0.13;100.00
53262;BME280;39658;51.090;-1.786;2024-01-07T08:33:32;102011.97;;;-0.17;100.00
53262;BME280;39658;51.090;-1.786;2024-01-07T08:35:59;102013.72;;;-0.13;100.00
53262;BME280;39658;51.090;-1.786;2024-01-07T08:38:26;102019.75;;;-0.14;100.00
53262;BME280;39658;51.090;-1.786;2024-01-07T08:40:53;102022.34;;;-0.22;100.00
53262;BME280;39658;51.090;-1.786;2024-01-07T08:43:21;102026.69;;;-0.16;100.00
53262;BME280;39658;51.090;-1.786;2024-01-07T08:45:48;102028.41;;;-0.12;100.00
53262;BME280;39658;51.090;-1.786;2024-01-07T08:48:15;102026.69;;;-0.09;100.00
53262;BME280;39658;51.090;-1.786;2024-01-07T08:50:41;102031.84;;;0.04;100.00
53262;BME280;39658;51.090;-1.786;2024-01-07T08:53:08;102039.63;;;0.13;100.00
53262;BME280;39658;51.090;-1.786;2024-01-07T08:55:35;102035.28;;;0.26;100.00
53262;BME280;39658;51.090;-1.786;2024-01-07T08:58:02;102032.66;;;0.32;100.00
53262;BME280;39658;51.090;-1.786;2024-01-07T09:00:30;102034.38;;;0.38;100.00
53262;BME280;39658;51.090;-1.786;2024-01-07T09:02:57;102039.56;;;0.48;100.00
53262;BME280;39658;51.090;-1.786;2024-01-07T09:05:24;102038.63;;;0.57;100.00
53262;BME280;39658;51.090;-1.786;2024-01-07T09:07:51;102036.91;;;0.67;100.00
53262;BME280;39658;51.090;-1.786;2024-01-07T09:10:18;102038.56;;;0.77;100.00
53262;BME280;39658;51.090;-1.786;2024-01-07T09:12:46;102049.75;;;0.90;100.00
53262;BME280;39658;51.090;-1.786;2024-01-07T09:15:13;102054.06;;;0.94;100.00
53262;BME280;39658;51.090;-1.786;2024-01-07T09:17:41;102054.06;;;1.00;100.00
53262;BME280;39658;51.090;-1.786;2024-01-07T09:20:09;102067.00;;;1.11;100.00
53262;BME280;39658;51.090;-1.786;2024-01-07T09:22:36;102073.91;;;1.17;100.00
53262;BME280;39658;51.090;-1.786;2024-01-07T09:25:04;102079.91;;;1.25;100.00
53262;BME280;39658;51.090;-1.786;2024-01-07T09:27:32;102081.59;;;1.37;100.00
53262;BME280;39658;51.090;-1.786;2024-01-07T09:29:59;102088.47;;;1.42;100.00
53262;BME280;39658;51.090;-1.786;2024-01-07T09:32:26;102098.81;;;1.49;100.00
53262;BME280;39658;51.090;-1.786;2024-01-07T09:34:55;102104.00;;;1.50;100.00
53262;BME280;39658;51.090;-1.786;2024-01-07T09:37:21;102100.53;;;1.53;100.00
53262;BME280;39658;51.090;-1.786;2024-01-07T09:39:48;102115.25;;;1.54;100.00
53262;BME280;39658;51.090;-1.786;2024-01-07T09:42:17;102116.13;;;1.57;100.00
53262;BME280;39658;51.090;-1.786;2024-01-07T09:44:44;102123.00;;;1.58;100.00
53262;BME280;39658;51.090;-1.786;2024-01-07T09:47:12;102132.53;;;1.63;100.00
53262;BME280;39658;51.090;-1.786;2024-01-07T09:49:39;102128.16;;;1.69;100.00
53262;BME280;39658;51.090;-1.786;2024-01-07T09:52:09;102130.69;;;1.80;100.00
53262;BME280;39658;51.090;-1.786;2024-01-07T09:54:36;102138.44;;;1.85;100.00
53262;BME280;39658;51.090;-1.786;2024-01-07T09:57:06;102135.84;;;1.86;100.00
53262;BME280;39658;51.090;-1.786;2024-01-07T09:59:33;102151.38;;;1.95;100.00
53262;BME280;39658;51.090;-1.786;2024-01-07T10:02:02;102159.16;;;2.00;100.00
53262;BME280;39658;51.090;-1.786;2024-01-07T10:04:29;102165.22;;;2.04;100.00
53262;BME280;39658;51.090;-1.786;2024-01-07T10:06:57;102159.13;;;2.03;100.00
53262;BME280;39658;51.090;-1.786;2024-01-07T10:09:28;102165.19;;;2.08;100.00
53262;BME280;39658;51.090;-1.786;2024-01-07T10:11:55;102179.88;;;2.11;100.00
53262;BME280;39658;51.090;-1.786;2024-01-07T10:14:22;102192.00;;;2.15;100.00
53262;BME280;39658;51.090;-1.786;2024-01-07T10:16:50;102191.13;;;2.18;100.00
53262;BME280;39658;51.090;-1.786;2024-01-07T10:19:21;102186.78;;;2.18;100.00
53262;BME280;39658;51.090;-1.786;2024-01-07T10:21:59;102185.88;;;2.25;100.00
53262;BME280;39658;51.090;-1.786;2024-01-07T10:24:34;102195.34;;;2.31;100.00
53262;BME280;39658;51.090;-1.786;2024-01-07T10:27:02;102200.47;;;2.43;100.00
53262;BME280;39658;51.090;-1.786;2024-01-07T10:29:29;102203.91;;;2.45;100.00
53262;BME280;39658;51.090;-1.786;2024-01-07T10:31:56;102216.88;;;2.50;100.00
53262;BME280;39658;51.090;-1.786;2024-01-07T10:34:24;102214.28;;;2.50;100.00
53262;BME280;39658;51.090;-1.786;2024-01-07T10:36:51;102227.25;;;2.58;100.00
53262;BME280;39658;51.090;-1.786;2024-01-07T10:39:20;102226.34;;;2.62;100.00
53262;BME280;39658;51.090;-1.786;2024-01-07T10:41:47;102236.66;;;2.73;100.00
53262;BME280;39658;51.090;-1.786;2024-01-07T10:44:15;102240.09;;;2.78;100.00
53262;BME280;39658;51.090;-1.786;2024-01-07T10:46:43;102245.28;;;2.79;100.00
53262;BME280;39658;51.090;-1.786;2024-01-07T10:49:18;102240.97;;;2.80;100.00
53262;BME280;39658;51.090;-1.786;2024-01-07T10:51:50;102242.66;;;2.81;100.00
53262;BME280;39658;51.090;-1.786;2024-01-07T10:54:23;102246.22;;;2.75;100.00
53262;BME280;39658;51.090;-1.786;2024-01-07T10:56:54;102250.53;;;2.75;100.00
53262;BME280;39658;51.090;-1.786;2024-01-07T10:59:24;102240.19;;;2.65;100.00
53262;BME280;39658;51.090;-1.786;2024-01-07T11:01:53;102262.66;;;2.79;100.00
53262;BME280;39658;51.090;-1.786;2024-01-07T11:04:26;102256.53;;;2.87;100.00
53262;BME280;39658;51.090;-1.786;2024-01-07T11:07:00;102264.31;;;2.91;100.00
53262;BME280;39658;51.090;-1.786;2024-01-07T11:09:35;102251.25;;;2.95;100.00
53262;BME280;39658;51.090;-1.786;2024-01-07T11:12:04;102259.72;;;3.14;100.00
53262;BME280;39658;51.090;-1.786;2024-01-07T11:14:34;102269.84;;;3.44;100.00
53262;BME280;39658;51.090;-1.786;2024-01-07T11:17:01;102280.94;;;3.59;100.00
53262;BME280;39658;51.090;-1.786;2024-01-07T11:19:29;102290.34;;;3.74;100.00
53262;BME280;39658;51.090;-1.786;2024-01-07T11:22:21;102294.50;;;3.89;100.00
53262;BME280;39658;51.090;-1.786;2024-01-07T11:24:49;102312.53;;;4.06;100.00
53262;BME280;39658;51.090;-1.786;2024-01-07T11:27:17;102314.94;;;4.22;100.00
53262;BME280;39658;51.090;-1.786;2024-01-07T11:29:52;102346.19;;;4.28;100.00
53262;BME280;39658;51.090;-1.786;2024-01-07T11:32:22;102351.28;;;4.37;100.00
53262;BME280;39658;51.090;-1.786;2024-01-07T11:34:50;102350.75;;;4.74;100.00
53262;BME280;39658;51.090;-1.786;2024-01-07T11:37:19;102346.78;;;5.03;100.00
53262;BME280;39658;51.090;-1.786;2024-01-07T11:39:48;102338.34;;;4.87;100.00
53262;BME280;39658;51.090;-1.786;2024-01-07T11:42:15;102339.84;;;5.52;100.00
53262;BME280;39658;51.090;-1.786;2024-01-07T11:44:48;102336.97;;;5.66;100.00
53262;BME280;39658;51.090;-1.786;2024-01-07T11:47:15;102339.13;;;5.42;100.00
53262;BME280;39658;51.090;-1.786;2024-01-07T11:49:42;102326.78;;;5.50;100.00
53262;BME280;39658;51.090;-1.786;2024-01-07T11:52:10;102320.34;;;5.21;100.00
53262;BME280;39658;51.090;-1.786;2024-01-07T11:54:37;102318.75;;;5.13;100.00
53262;BME280;39658;51.090;-1.786;2024-01-07T11:57:04;102317.56;;;4.79;100.00
53262;BME280;39658;51.090;-1.786;2024-01-07T11:59:31;102319.53;;;4.65;100.00
53262;BME280;39658;51.090;-1.786;2024-01-07T12:02:01;102322.44;;;4.46;100.00
53262;BME280;39658;51.090;-1.786;2024-01-07T12:04:29;102325.38;;;4.23;100.00
53262;BME280;39658;51.090;-1.786;2024-01-07T12:06:56;102323.78;;;4.11;100.00
53262;BME280;39658;51.090;-1.786;2024-01-07T12:09:23;102319.38;;;4.17;100.00
53262;BME280;39658;51.090;-1.786;2024-01-07T12:11:50;102326.31;;;4.18;100.00
53262;BME280;39658;51.090;-1.786;2024-01-07T12:14:18;102318.50;;;4.16;100.00
53262;BME280;39658;51.090;-1.786;2024-01-07T12:16:45;102320.34;;;4.09;100.00
53262;BME280;39658;51.090;-1.786;2024-01-07T12:19:14;102315.22;;;4.02;100.00
53262;BME280;39658;51.090;-1.786;2024-01-07T12:21:40;102322.16;;;4.04;100.00
53262;BME280;39658;51.090;-1.786;2024-01-07T12:24:07;102316.03;;;4.05;100.00
53262;BME280;39658;51.090;-1.786;2024-01-07T12:26:34;102321.28;;;4.02;100.00
53262;BME280;39658;51.090;-1.786;2024-01-07T12:29:02;102318.69;;;4.01;100.00
53262;BME280;39658;51.090;-1.786;2024-01-07T12:31:31;102320.38;;;4.06;100.00
53262;BME280;39658;51.090;-1.786;2024-01-07T12:33:58;102321.41;;;3.91;100.00
53262;BME280;39658;51.090;-1.786;2024-01-07T12:36:26;102317.06;;;3.95;100.00
53262;BME280;39658;51.090;-1.786;2024-01-07T12:38:53;102314.41;;;3.98;100.00
53262;BME280;39658;51.090;-1.786;2024-01-07T12:41:20;102315.88;;;4.16;100.00